createdAt,value
2023-04-27T00:00:02.645Z,2.30
2023-04-27T00:02:31.222Z,1.97
2023-04-27T00:04:59.548Z,2.20
2023-04-27T00:07:28.369Z,2.20
2023-04-27T00:09:57.909Z,2.10
2023-04-27T00:12:26.260Z,2.17
2023-04-27T00:14:54.375Z,1.87
2023-04-27T00:17:22.544Z,1.90
2023-04-27T00:19:50.829Z,1.80
2023-04-27T00:22:19.214Z,2.07
2023-04-27T00:24:47.488Z,1.70
2023-04-27T00:27:16.988Z,2.10
2023-04-27T00:29:45.151Z,1.80
2023-04-27T00:32:13.678Z,1.83
2023-04-27T00:34:41.960Z,2.43
2023-04-27T00:37:10.075Z,2.03
2023-04-27T00:39:38.343Z,1.80
2023-04-27T00:42:11.274Z,2.43
2023-04-27T00:44:41.066Z,1.90
2023-04-27T00:47:09.196Z,2.30
2023-04-27T00:49:37.519Z,1.80
2023-04-27T00:52:06.232Z,1.87
2023-04-27T00:54:34.883Z,2.00
2023-04-27T00:57:04.438Z,2.53
2023-04-27T00:59:32.672Z,2.17
2023-04-27T01:02:02.689Z,2.30
2023-04-27T01:04:32.360Z,2.00
2023-04-27T01:07:02.832Z,1.80
2023-04-27T01:09:31.019Z,2.00
2023-04-27T01:11:59.939Z,1.50
2023-04-27T01:14:28.201Z,1.97
2023-04-27T01:16:56.424Z,1.60
2023-04-27T01:19:26.194Z,2.10
2023-04-27T01:21:54.401Z,2.03
2023-04-27T01:24:24.060Z,2.60
2023-04-27T01:26:53.975Z,1.70
2023-04-27T01:29:22.456Z,2.17
2023-04-27T01:31:50.753Z,1.80
2023-04-27T01:34:18.988Z,1.90
2023-04-27T01:36:47.206Z,2.07
2023-04-27T01:39:15.557Z,2.23
2023-04-27T01:41:45.350Z,1.73
2023-04-27T01:44:13.568Z,1.77
2023-04-27T01:46:41.855Z,2.23
2023-04-27T01:49:10.210Z,1.60
2023-04-27T01:51:38.426Z,2.10
2023-04-27T01:54:06.622Z,1.90
2023-04-27T01:56:34.925Z,1.57
2023-04-27T01:59:04.775Z,2.30
2023-04-27T02:01:32.861Z,1.70
2023-04-27T02:04:01.103Z,1.90
2023-04-27T02:06:29.383Z,1.87
2023-04-27T02:08:57.484Z,1.90
2023-04-27T02:11:27.468Z,2.20
2023-04-27T02:13:55.765Z,2.30
2023-04-27T02:16:25.440Z,1.83
2023-04-27T02:18:54.465Z,2.27
2023-04-27T02:21:22.745Z,2.10
2023-04-27T02:23:50.926Z,1.83
2023-04-27T02:26:22.611Z,1.67
2023-04-27T02:28:52.069Z,2.23
2023-04-27T02:31:23.113Z,1.80
2023-04-27T02:33:53.103Z,1.80
2023-04-27T02:36:21.344Z,2.50
2023-04-27T02:38:49.586Z,1.80
2023-04-27T02:41:17.651Z,2.20
2023-04-27T02:43:46.757Z,1.57
2023-04-27T02:46:15.001Z,1.90
2023-04-27T02:48:43.220Z,1.73
2023-04-27T02:51:12.649Z,2.07
2023-04-27T02:53:40.968Z,1.83
2023-04-27T02:56:09.106Z,1.77
2023-04-27T02:58:37.294Z,1.73
2023-04-27T03:01:06.088Z,1.73
2023-04-27T03:03:34.404Z,2.17
2023-04-27T03:06:03.577Z,2.07
2023-04-27T03:08:33.185Z,2.07
2023-04-27T03:11:01.556Z,1.60
2023-04-27T03:13:29.616Z,2.10
2023-04-27T03:15:57.717Z,2.03
2023-04-27T03:18:25.808Z,2.03
2023-04-27T03:20:53.954Z,1.80
2023-04-27T03:23:22.034Z,1.83
2023-04-27T03:25:51.555Z,1.97
2023-04-27T03:28:19.615Z,1.57
2023-04-27T03:30:47.676Z,1.70
2023-04-27T03:33:22.233Z,1.63
2023-04-27T03:35:56.829Z,1.47
2023-04-27T03:38:35.749Z,1.83
2023-04-27T03:41:05.758Z,2.20
2023-04-27T03:43:42.951Z,2.40
2023-04-27T03:46:11.131Z,1.83
2023-04-27T03:48:40.000Z,1.70
2023-04-27T03:51:08.576Z,2.10
2023-04-27T03:53:36.904Z,1.90
2023-04-27T03:56:06.935Z,2.00
2023-04-27T03:58:35.087Z,1.93
2023-04-27T04:01:03.570Z,2.10
2023-04-27T04:03:31.976Z,2.07
2023-04-27T04:06:00.188Z,1.70
2023-04-27T04:08:28.511Z,2.10
2023-04-27T04:10:58.267Z,1.90
2023-04-27T04:13:27.929Z,1.63
2023-04-27T04:16:03.503Z,1.80
2023-04-27T04:18:33.888Z,1.80
2023-04-27T04:21:07.828Z,1.63
2023-04-27T04:23:35.997Z,1.77
2023-04-27T04:26:04.384Z,1.70
2023-04-27T04:28:33.994Z,1.73
2023-04-27T04:31:04.939Z,1.90
2023-04-27T04:33:33.084Z,2.10
2023-04-27T04:36:04.399Z,1.60
2023-04-27T04:38:33.747Z,1.40
2023-04-27T04:41:02.329Z,1.70
2023-04-27T04:43:30.516Z,1.70
2023-04-27T04:45:59.945Z,1.70
2023-04-27T04:48:29.071Z,1.83
2023-04-27T04:50:58.000Z,1.90
2023-04-27T04:53:26.204Z,1.83
2023-04-27T04:55:54.354Z,1.77
2023-04-27T04:58:22.445Z,1.60
2023-04-27T05:00:50.548Z,1.80
2023-04-27T05:03:20.094Z,1.60
2023-04-27T05:05:49.556Z,1.77
2023-04-27T05:08:17.669Z,1.80
2023-04-27T05:10:51.272Z,1.50
2023-04-27T05:13:19.354Z,2.30
2023-04-27T05:15:47.451Z,1.83
2023-04-27T05:18:15.936Z,1.87
2023-04-27T05:20:45.616Z,2.10
2023-04-27T05:23:13.967Z,1.60
2023-04-27T05:25:42.739Z,1.87
2023-04-27T05:28:12.023Z,1.60
2023-04-27T05:30:40.411Z,2.00
2023-04-27T05:33:08.494Z,1.63
2023-04-27T05:35:39.576Z,2.03
2023-04-27T05:38:09.048Z,2.03
2023-04-27T05:40:37.214Z,1.90
2023-04-27T05:43:05.885Z,1.60
2023-04-27T05:45:34.265Z,1.60
2023-04-27T05:48:02.644Z,1.80
2023-04-27T05:50:30.872Z,2.40
2023-04-27T05:52:59.124Z,2.63
2023-04-27T05:55:28.626Z,2.53
2023-04-27T05:58:07.058Z,2.57
2023-04-27T06:00:36.478Z,2.57
2023-04-27T06:03:04.885Z,2.50
2023-04-27T06:05:34.370Z,2.40
2023-04-27T06:08:02.702Z,2.80
2023-04-27T06:10:32.261Z,2.97
2023-04-27T06:13:00.690Z,2.80
2023-04-27T06:15:29.238Z,3.13
2023-04-27T06:17:57.513Z,3.20
2023-04-27T06:20:25.900Z,2.90
2023-04-27T06:22:53.977Z,3.10
2023-04-27T06:25:24.375Z,2.97
2023-04-27T06:27:55.724Z,2.50
2023-04-27T06:30:24.806Z,2.50
2023-04-27T06:32:53.627Z,2.67
2023-04-27T06:35:22.663Z,1.67
2023-04-27T06:37:51.278Z,2.23
2023-04-27T06:40:31.599Z,2.33
2023-04-27T06:43:01.313Z,2.60
2023-04-27T06:45:30.651Z,1.80
2023-04-27T06:47:59.174Z,2.67
2023-04-27T06:50:27.741Z,1.60
2023-04-27T06:52:55.879Z,2.00
2023-04-27T06:55:24.215Z,2.20
2023-04-27T06:57:52.482Z,1.90
2023-04-27T07:00:22.870Z,1.70
2023-04-27T07:02:52.544Z,1.70
2023-04-27T07:05:21.052Z,1.93
2023-04-27T07:07:49.292Z,1.53
2023-04-27T07:10:17.466Z,1.93
2023-04-27T07:12:45.751Z,1.77
2023-04-27T07:15:15.034Z,2.57
2023-04-27T07:17:44.702Z,2.00
2023-04-27T07:20:14.228Z,2.30
2023-04-27T07:22:42.489Z,2.20
2023-04-27T07:25:11.437Z,2.80
2023-04-27T07:27:39.741Z,2.13
2023-04-27T07:30:10.256Z,1.80
2023-04-27T07:32:54.444Z,1.97
2023-04-27T07:35:23.188Z,1.97
2023-04-27T07:37:52.104Z,2.33
2023-04-27T07:40:22.051Z,1.53
2023-04-27T07:42:50.889Z,2.17
2023-04-27T07:45:19.152Z,1.83
2023-04-27T07:47:48.926Z,2.50
2023-04-27T07:50:22.043Z,2.33
2023-04-27T07:52:50.012Z,3.60
2023-04-27T07:55:18.309Z,3.13
2023-04-27T07:57:46.370Z,3.20
2023-04-27T08:00:16.000Z,3.03
2023-04-27T08:02:44.297Z,2.63
2023-04-27T08:05:14.425Z,2.70
2023-04-27T08:07:44.953Z,2.50
2023-04-27T08:10:14.155Z,2.70
2023-04-27T08:12:42.132Z,2.87
2023-04-27T08:15:12.082Z,2.43
2023-04-27T08:17:41.801Z,2.27
2023-04-27T08:20:13.387Z,2.80
2023-04-27T08:22:42.638Z,2.63
2023-04-27T08:25:11.002Z,2.30
2023-04-27T08:27:40.322Z,1.87
2023-04-27T08:30:10.170Z,2.40
2023-04-27T08:32:38.343Z,2.00
2023-04-27T08:35:07.787Z,2.07
2023-04-27T08:37:37.187Z,1.97
2023-04-27T08:40:08.045Z,2.57
2023-04-27T08:42:36.294Z,2.23
2023-04-27T08:45:05.429Z,2.23
2023-04-27T08:47:42.556Z,1.83
2023-04-27T08:50:12.572Z,2.20
2023-04-27T08:52:44.922Z,1.83
2023-04-27T08:55:15.738Z,2.53
2023-04-27T08:57:56.712Z,2.03
2023-04-27T09:00:26.735Z,2.65
2023-04-27T09:02:55.226Z,2.27
2023-04-27T09:05:24.406Z,2.00
2023-04-27T09:08:05.171Z,2.43
2023-04-27T09:10:45.606Z,2.10
2023-04-27T09:13:13.744Z,1.60
2023-04-27T09:15:48.411Z,2.17
2023-04-27T09:18:19.277Z,1.70
2023-04-27T09:20:49.845Z,1.90
2023-04-27T09:23:37.179Z,1.93
2023-04-27T09:26:08.804Z,1.60
2023-04-27T09:28:40.309Z,2.10
2023-04-27T09:31:09.269Z,1.80
2023-04-27T09:33:37.805Z,1.70
2023-04-27T09:36:07.944Z,1.77
2023-04-27T09:38:37.456Z,2.10
2023-04-27T09:41:05.459Z,2.33
2023-04-27T09:43:33.470Z,2.20
2023-04-27T09:46:01.601Z,1.83
2023-04-27T09:48:29.680Z,2.40
2023-04-27T09:50:57.703Z,2.83
2023-04-27T09:53:32.058Z,2.77
2023-04-27T09:56:22.098Z,2.17
2023-04-27T09:59:16.770Z,2.23
2023-04-27T10:01:48.556Z,1.93
2023-04-27T10:04:41.127Z,2.87
2023-04-27T10:07:12.709Z,2.63
2023-04-27T10:09:44.125Z,2.70
2023-04-27T10:12:21.695Z,1.93
2023-04-27T10:14:51.999Z,2.30
2023-04-27T10:17:24.440Z,1.93
2023-04-27T10:20:00.713Z,2.10
2023-04-27T10:22:42.578Z,2.10
2023-04-27T10:25:22.015Z,1.93
2023-04-27T10:27:54.515Z,2.67
2023-04-27T10:30:25.064Z,2.53
2023-04-27T10:32:55.425Z,2.30
2023-04-27T10:35:24.641Z,2.20
2023-04-27T10:37:53.128Z,2.50
2023-04-27T10:40:21.157Z,2.33
2023-04-27T10:42:51.220Z,2.00
2023-04-27T10:45:31.564Z,1.90
2023-04-27T10:48:02.077Z,2.33
2023-04-27T10:50:31.899Z,2.40
2023-04-27T10:53:03.716Z,1.93
2023-04-27T10:55:32.384Z,2.23
2023-04-27T10:58:02.269Z,1.77
2023-04-27T11:00:32.592Z,2.23
2023-04-27T11:03:14.551Z,1.90
2023-04-27T11:05:44.464Z,1.90
2023-04-27T11:08:15.455Z,2.20
2023-04-27T11:10:47.117Z,1.60
2023-04-27T11:13:18.737Z,2.30
2023-04-27T11:15:48.872Z,2.63
2023-04-27T11:18:18.686Z,2.13
2023-04-27T11:20:50.380Z,1.97
2023-04-27T11:23:26.184Z,2.10
2023-04-27T11:25:55.037Z,2.10
2023-04-27T11:28:25.213Z,2.00
2023-04-27T11:31:00.683Z,2.10
2023-04-27T11:33:29.435Z,1.70
2023-04-27T11:35:58.041Z,1.90
2023-04-27T11:38:27.483Z,1.90
2023-04-27T11:41:04.539Z,2.90
2023-04-27T11:43:34.493Z,3.00
2023-04-27T11:46:04.818Z,3.57
2023-04-27T11:48:32.929Z,3.40
2023-04-27T11:51:01.642Z,2.70
2023-04-27T11:53:34.664Z,4.03
2023-04-27T11:56:05.240Z,3.97
2023-04-27T11:58:36.851Z,4.73
2023-04-27T12:01:05.110Z,4.20
2023-04-27T12:03:33.668Z,4.50
2023-04-27T12:08:32.846Z,5.10
2023-04-27T12:11:00.877Z,4.70
2023-04-27T12:13:29.069Z,4.60
2023-04-27T12:15:59.149Z,5.17
2023-04-27T12:18:29.087Z,4.63
2023-04-27T12:20:58.129Z,4.63
2023-04-27T12:23:28.137Z,4.67
2023-04-27T12:25:56.591Z,3.73
2023-04-27T12:28:24.619Z,4.43
2023-04-27T12:30:52.766Z,4.50
2023-04-27T12:33:22.260Z,4.97
2023-04-27T12:35:50.453Z,4.43
2023-04-27T12:38:18.578Z,4.57
2023-04-27T12:40:46.630Z,4.20
2023-04-27T12:43:14.789Z,3.80
2023-04-27T12:45:43.052Z,4.17
2023-04-27T12:48:11.794Z,4.00
2023-04-27T12:50:41.205Z,4.60
2023-04-27T12:53:09.285Z,4.40
2023-04-27T12:55:38.012Z,5.13
2023-04-27T12:58:06.396Z,4.77
2023-04-27T13:00:35.117Z,4.47
2023-04-27T13:03:04.215Z,3.80
2023-04-27T13:05:32.492Z,3.80
2023-04-27T13:08:01.907Z,3.50
2023-04-27T13:10:30.400Z,3.57
2023-04-27T13:12:59.550Z,3.90
2023-04-27T13:15:28.441Z,3.90
2023-04-27T13:17:58.778Z,3.27
2023-04-27T13:20:26.851Z,3.53
2023-04-27T13:22:54.955Z,4.00
2023-04-27T13:25:24.659Z,3.40
2023-04-27T13:27:53.879Z,3.03
2023-04-27T13:30:22.114Z,3.90
2023-04-27T13:32:50.299Z,3.03
2023-04-27T13:35:18.438Z,2.93
2023-04-27T13:37:46.547Z,3.73
2023-04-27T13:40:14.858Z,3.90
2023-04-27T13:42:44.203Z,4.03
2023-04-27T13:45:12.722Z,3.43
2023-04-27T13:47:41.387Z,2.87
2023-04-27T13:50:11.989Z,3.17
2023-04-27T13:52:41.283Z,4.20
2023-04-27T13:55:11.501Z,4.40
2023-04-27T13:57:40.063Z,5.13
2023-04-27T14:00:11.509Z,4.37
2023-04-27T14:02:40.426Z,4.17
2023-04-27T14:05:09.625Z,4.73
2023-04-27T14:07:37.681Z,4.13
2023-04-27T14:10:07.170Z,4.30
2023-04-27T14:12:35.767Z,3.80
2023-04-27T14:15:04.225Z,4.63
2023-04-27T14:17:34.278Z,4.37
2023-04-27T14:20:02.281Z,3.93
2023-04-27T14:22:31.442Z,4.40
2023-04-27T14:24:59.510Z,3.70
2023-04-27T14:27:27.630Z,3.77
2023-04-27T14:29:55.892Z,4.30
2023-04-27T14:32:24.007Z,3.80
2023-04-27T14:34:53.799Z,3.10
2023-04-27T14:37:21.854Z,3.80
2023-04-27T14:39:49.902Z,3.90
2023-04-27T14:42:18.062Z,4.00
2023-04-27T14:44:47.563Z,4.63
2023-04-27T14:47:16.890Z,3.77
2023-04-27T14:49:45.030Z,3.70
2023-04-27T14:52:14.457Z,3.50
2023-04-27T14:54:42.494Z,3.07
2023-04-27T14:57:10.594Z,3.53
2023-04-27T14:59:38.561Z,3.37
2023-04-27T15:02:07.483Z,3.50
2023-04-27T15:04:37.554Z,3.97
2023-04-27T15:07:06.295Z,4.37
2023-04-27T15:09:36.576Z,4.00
2023-04-27T15:12:07.390Z,3.50
2023-04-27T15:14:35.461Z,3.30
2023-04-27T15:17:04.161Z,3.47
2023-04-27T15:19:32.183Z,3.30
2023-04-27T15:22:00.237Z,3.63
2023-04-27T15:24:28.425Z,2.70
2023-04-27T15:26:57.772Z,3.80
2023-04-27T15:29:26.610Z,3.60
2023-04-27T15:31:54.911Z,3.20
2023-04-27T15:34:23.176Z,2.90
2023-04-27T15:36:51.233Z,3.47
2023-04-27T15:39:19.357Z,3.60
2023-04-27T15:41:47.374Z,2.87
2023-04-27T15:44:16.721Z,3.07
2023-04-27T15:46:45.064Z,3.23
2023-04-27T15:49:13.496Z,2.90
2023-04-27T15:51:41.713Z,3.10
2023-04-27T15:54:09.944Z,2.97
2023-04-27T15:56:38.314Z,3.40
2023-04-27T15:59:06.821Z,3.37
2023-04-27T16:01:36.493Z,2.80
2023-04-27T16:04:05.879Z,3.00
2023-04-27T16:06:36.366Z,2.80
2023-04-27T16:09:04.893Z,3.23
2023-04-27T16:11:33.202Z,3.60
2023-04-27T16:14:01.209Z,2.77
2023-04-27T16:16:29.251Z,2.93
2023-04-27T16:18:59.393Z,2.70
2023-04-27T16:21:28.116Z,2.90
2023-04-27T16:23:56.717Z,3.13
2023-04-27T16:26:26.608Z,3.40
2023-04-27T16:28:56.530Z,3.47
2023-04-27T16:31:25.108Z,2.80
2023-04-27T16:33:53.263Z,3.20
2023-04-27T16:36:22.636Z,3.33
2023-04-27T16:38:50.850Z,2.70
2023-04-27T16:41:19.095Z,3.00
2023-04-27T16:43:47.208Z,2.47
2023-04-27T16:46:16.940Z,3.20
2023-04-27T16:48:45.021Z,3.17
2023-04-27T16:51:13.093Z,3.30
2023-04-27T16:53:42.533Z,3.33
2023-04-27T16:56:11.997Z,2.97
2023-04-27T16:58:39.988Z,3.40
2023-04-27T17:01:08.502Z,2.80
2023-04-27T17:03:36.614Z,3.00
2023-04-27T17:06:04.950Z,2.63
2023-04-27T17:08:33.176Z,3.60
2023-04-27T17:11:02.568Z,2.87
2023-04-27T17:13:31.732Z,2.83
2023-04-27T17:15:59.770Z,2.87
2023-04-27T17:18:27.951Z,2.83
2023-04-27T17:20:56.019Z,2.90
2023-04-27T17:23:24.512Z,3.10
2023-04-27T17:25:52.509Z,2.67
2023-04-27T17:28:22.362Z,2.90
2023-04-27T17:30:50.360Z,2.60
2023-04-27T17:33:18.613Z,3.30
2023-04-27T17:35:47.192Z,2.80
2023-04-27T17:38:15.525Z,3.10
2023-04-27T17:40:44.597Z,2.93
2023-04-27T17:43:12.650Z,2.57
2023-04-27T17:45:41.967Z,2.90
2023-04-27T17:48:10.004Z,2.77
2023-04-27T17:50:38.806Z,2.77
2023-04-27T17:53:06.893Z,3.03
2023-04-27T17:55:34.928Z,2.70
2023-04-27T17:58:04.038Z,2.80
2023-04-27T18:00:32.392Z,2.70
2023-04-27T18:03:01.871Z,2.83
2023-04-27T18:05:29.999Z,2.60
2023-04-27T18:07:58.052Z,2.80
2023-04-27T18:10:26.041Z,3.10
2023-04-27T18:12:54.222Z,2.80
2023-04-27T18:15:22.418Z,3.00
2023-04-27T18:17:50.625Z,2.77
2023-04-27T18:20:22.896Z,2.90
2023-04-27T18:22:52.295Z,2.70
2023-04-27T18:25:21.133Z,4.23
2023-04-27T18:27:55.064Z,3.33
2023-04-27T18:30:24.799Z,2.90
2023-04-27T18:32:53.110Z,2.73
2023-04-27T18:35:22.621Z,3.20
2023-04-27T18:37:51.098Z,2.80
2023-04-27T18:40:22.215Z,2.90
2023-04-27T18:42:51.536Z,3.10
2023-04-27T18:45:19.590Z,2.87
2023-04-27T18:47:47.787Z,2.53
2023-04-27T18:50:17.314Z,2.40
2023-04-27T18:52:46.918Z,3.00
2023-04-27T18:55:16.656Z,3.00
2023-04-27T18:57:44.733Z,2.63
2023-04-27T19:00:14.926Z,3.10
2023-04-27T19:02:42.991Z,3.00
2023-04-27T19:05:13.757Z,2.73
2023-04-27T19:07:42.206Z,3.33
2023-04-27T19:10:13.011Z,3.43
2023-04-27T19:12:41.155Z,2.60
2023-04-27T19:15:10.379Z,3.10
2023-04-27T19:17:38.633Z,3.00
2023-04-27T19:20:09.025Z,3.30
2023-04-27T19:22:37.125Z,3.43
2023-04-27T19:25:06.379Z,3.50
2023-04-27T19:27:35.845Z,3.60
2023-04-27T19:30:04.239Z,3.63
2023-04-27T19:32:34.213Z,3.30
2023-04-27T19:35:02.413Z,3.67
2023-04-27T19:37:30.563Z,3.60
2023-04-27T19:39:58.558Z,3.10
2023-04-27T19:42:26.970Z,3.20
2023-04-27T19:44:56.642Z,3.57
2023-04-27T19:47:25.072Z,3.20
2023-04-27T19:49:53.362Z,2.97
2023-04-27T19:52:21.450Z,2.70
2023-04-27T19:54:53.189Z,3.17
2023-04-27T19:57:21.445Z,3.50
2023-04-27T19:59:49.770Z,3.07
2023-04-27T20:02:19.151Z,3.20
2023-04-27T20:04:47.658Z,3.20
2023-04-27T20:07:16.012Z,3.43
2023-04-27T20:09:44.032Z,2.83
2023-04-27T20:12:24.001Z,2.83
2023-04-27T20:15:00.319Z,2.77
2023-04-27T20:17:30.010Z,2.73
2023-04-27T20:19:58.098Z,2.83
2023-04-27T20:22:27.082Z,2.80
2023-04-27T20:24:58.975Z,2.70
2023-04-27T20:27:27.140Z,2.77
2023-04-27T20:29:55.161Z,3.43
2023-04-27T20:32:23.163Z,2.60
2023-04-27T20:34:53.061Z,2.57
2023-04-27T20:37:21.143Z,2.93
2023-04-27T20:39:49.342Z,2.77
2023-04-27T20:42:17.346Z,2.67
2023-04-27T20:44:46.819Z,2.77
2023-04-27T20:47:15.515Z,3.17
2023-04-27T20:49:43.622Z,2.97
2023-04-27T20:52:13.010Z,2.40
2023-04-27T20:54:41.124Z,3.30
2023-04-27T20:57:13.365Z,2.60
2023-04-27T20:59:41.568Z,3.40
2023-04-27T21:02:09.948Z,3.47
2023-04-27T21:04:38.248Z,2.90
2023-04-27T21:07:06.495Z,3.10
2023-04-27T21:09:36.127Z,2.73
2023-04-27T21:12:04.152Z,2.70
2023-04-27T21:14:33.505Z,3.10
2023-04-27T21:17:01.830Z,2.57
2023-04-27T21:19:30.065Z,2.90
2023-04-27T21:21:58.068Z,2.90
2023-04-27T21:24:26.162Z,2.70
2023-04-27T21:26:55.721Z,2.80
2023-04-27T21:29:23.760Z,2.90
2023-04-27T21:31:51.734Z,2.83
2023-04-27T21:34:19.677Z,3.00
2023-04-27T21:36:47.630Z,2.87
2023-04-27T21:39:15.726Z,3.20
2023-04-27T21:41:43.826Z,2.70
2023-04-27T21:44:13.349Z,3.50
2023-04-27T21:46:41.630Z,2.63
2023-04-27T21:49:09.624Z,3.23
2023-04-27T21:51:38.220Z,2.70
2023-04-27T21:54:06.529Z,3.30
2023-04-27T21:56:34.541Z,2.80
2023-04-27T21:59:02.633Z,3.30
2023-04-27T22:01:32.115Z,3.03
2023-04-27T22:04:00.862Z,3.80
2023-04-27T22:06:30.657Z,4.07
2023-04-27T22:08:58.758Z,3.10
2023-04-27T22:11:26.956Z,3.00
2023-04-27T22:13:54.994Z,3.07
2023-04-27T22:16:23.237Z,3.07
2023-04-27T22:18:53.768Z,4.00
2023-04-27T22:21:24.197Z,3.23
2023-04-27T22:23:52.195Z,3.40
2023-04-27T22:26:20.216Z,3.90
2023-04-27T22:28:48.349Z,2.87
2023-04-27T22:31:16.667Z,3.10
2023-04-27T22:33:44.665Z,3.40
2023-04-27T22:36:14.148Z,3.13
2023-04-27T22:38:42.334Z,3.10
2023-04-27T22:41:10.671Z,3.47
2023-04-27T22:43:38.675Z,3.03
2023-04-27T22:46:06.839Z,2.90
2023-04-27T22:48:34.909Z,2.83
2023-04-27T22:51:02.951Z,3.70
2023-04-27T22:53:32.335Z,3.07
2023-04-27T22:56:00.936Z,3.10
2023-04-27T22:58:29.353Z,3.50
2023-04-27T23:00:57.466Z,3.07
2023-04-27T23:03:25.752Z,2.97
2023-04-27T23:05:54.168Z,3.07
2023-04-27T23:08:24.802Z,2.93
2023-04-27T23:10:54.564Z,4.07
2023-04-27T23:13:23.266Z,3.03
2023-04-27T23:15:51.339Z,3.60
2023-04-27T23:18:19.432Z,2.77
2023-04-27T23:20:47.548Z,2.93
2023-04-27T23:23:15.703Z,3.30
2023-04-27T23:25:43.679Z,2.70
2023-04-27T23:28:13.082Z,3.67
2023-04-27T23:30:41.183Z,2.77
2023-04-27T23:33:09.283Z,2.80
2023-04-27T23:35:48.447Z,3.50
2023-04-27T23:38:16.502Z,3.40
2023-04-27T23:40:44.488Z,3.20
2023-04-27T23:43:13.782Z,2.87
2023-04-27T23:45:41.808Z,3.00
2023-04-27T23:48:09.960Z,3.43
2023-04-27T23:50:37.959Z,3.70
2023-04-27T23:53:06.127Z,3.40
2023-04-27T23:55:35.507Z,3.20
2023-04-27T23:58:03.701Z,3.73
